createdAt,value
2018-08-12T00:05:46.272Z,13.70
2018-08-12T00:11:50.644Z,13.70
2018-08-12T00:17:54.143Z,13.70
2018-08-12T00:23:57.992Z,13.60
2018-08-12T00:30:01.905Z,13.50
2018-08-12T00:36:05.584Z,13.40
2018-08-12T00:42:09.423Z,13.40
2018-08-12T00:48:13.156Z,13.40
2018-08-12T00:54:17.963Z,13.30
2018-08-12T01:00:22.629Z,13.30
2018-08-12T01:06:26.846Z,13.30
2018-08-12T01:12:30.423Z,13.40
2018-08-12T01:18:34.290Z,13.40
2018-08-12T01:24:37.713Z,13.40
2018-08-12T01:30:41.493Z,13.30
2018-08-12T01:36:45.309Z,13.10
2018-08-12T01:42:49.048Z,13.00
2018-08-12T01:48:52.860Z,12.90
2018-08-12T01:54:57.146Z,12.70
2018-08-12T02:01:02.205Z,12.70
2018-08-12T02:07:05.791Z,12.60
2018-08-12T02:13:09.328Z,12.60
2018-08-12T02:19:12.998Z,12.70
2018-08-12T02:25:17.657Z,12.60
2018-08-12T02:31:21.362Z,12.40
2018-08-12T02:37:24.782Z,12.40
2018-08-12T02:43:29.012Z,12.40
2018-08-12T02:49:33.521Z,12.50
2018-08-12T02:55:48.500Z,12.40
2018-08-12T03:01:52.377Z,12.40
2018-08-12T03:07:56.124Z,12.50
2018-08-12T03:13:59.634Z,12.40
2018-08-12T03:20:10.723Z,12.50
2018-08-12T03:26:14.436Z,12.60
2018-08-12T03:32:17.882Z,12.60
2018-08-12T03:38:23.071Z,12.60
2018-08-12T03:44:26.647Z,12.60
2018-08-12T03:50:30.424Z,12.60
2018-08-12T03:56:34.141Z,12.70
2018-08-12T04:02:37.984Z,12.70
2018-08-12T04:08:42.219Z,12.70
2018-08-12T04:14:45.843Z,12.70
2018-08-12T04:20:49.282Z,12.80
2018-08-12T04:26:52.780Z,12.90
2018-08-12T04:32:56.352Z,13.00
2018-08-12T04:39:00.224Z,13.10
2018-08-12T04:45:04.825Z,13.30
2018-08-12T04:51:09.239Z,13.40
2018-08-12T04:57:13.267Z,13.60
2018-08-12T05:03:21.727Z,13.80
2018-08-12T05:09:26.530Z,13.90
2018-08-12T05:15:30.313Z,14.10
2018-08-12T05:21:33.826Z,14.30
2018-08-12T05:27:37.471Z,14.60
2018-08-12T05:33:41.062Z,14.90
2018-08-12T05:39:45.115Z,15.30
2018-08-12T05:45:48.596Z,15.60
2018-08-12T05:51:53.082Z,15.90
2018-08-12T05:57:56.810Z,16.20
2018-08-12T06:04:00.154Z,16.40
2018-08-12T06:10:05.405Z,16.70
2018-08-12T06:16:08.907Z,16.90
2018-08-12T06:22:12.484Z,17.10
2018-08-12T06:28:16.156Z,17.30
2018-08-12T06:34:20.497Z,17.50
2018-08-12T06:40:23.966Z,17.60
2018-08-12T06:46:27.724Z,17.80
2018-08-12T06:52:31.087Z,17.90
2018-08-12T06:58:34.804Z,18.00
2018-08-12T07:04:38.185Z,18.30
2018-08-12T07:10:41.829Z,18.50
2018-08-12T07:16:45.396Z,18.80
2018-08-12T07:22:48.903Z,19.10
2018-08-12T07:28:52.368Z,19.30
2018-08-12T07:34:55.837Z,19.50
2018-08-12T07:40:59.769Z,19.60
2018-08-12T07:47:03.649Z,19.70
2018-08-12T07:53:07.025Z,20.00
2018-08-12T07:59:10.536Z,20.20
2018-08-12T08:05:14.383Z,20.30
2018-08-12T08:11:18.000Z,20.50
2018-08-12T08:17:21.498Z,20.60
2018-08-12T08:23:25.058Z,20.90
2018-08-12T08:29:28.583Z,21.00
2018-08-12T08:35:32.660Z,21.20
2018-08-12T08:41:36.265Z,21.30
2018-08-12T08:47:39.578Z,21.50
2018-08-12T08:53:43.009Z,21.90
2018-08-12T08:59:46.544Z,22.10
2018-08-12T09:05:50.273Z,22.30
2018-08-12T09:11:53.933Z,22.50
2018-08-12T09:17:57.308Z,22.80
2018-08-12T09:24:01.104Z,23.10
2018-08-12T09:30:10.294Z,23.30
2018-08-12T09:36:13.766Z,23.30
2018-08-12T09:42:17.300Z,23.40
2018-08-12T09:48:20.809Z,23.50
2018-08-12T09:54:31.229Z,23.50
2018-08-12T10:00:40.574Z,23.70
2018-08-12T10:06:44.418Z,24.00
2018-08-12T10:12:49.139Z,24.20
2018-08-12T10:18:53.189Z,24.20
2018-08-12T10:24:56.641Z,24.40
2018-08-12T10:31:00.445Z,24.50
2018-08-12T10:37:03.976Z,24.70
2018-08-12T10:43:07.901Z,24.70
2018-08-12T10:49:11.431Z,24.80
2018-08-12T10:55:16.961Z,24.90
2018-08-12T11:01:21.485Z,25.00
2018-08-12T11:07:25.429Z,25.10
2018-08-12T11:13:29.226Z,25.30
2018-08-12T11:19:33.191Z,25.40
2018-08-12T11:25:36.801Z,25.60
2018-08-12T11:31:40.328Z,25.80
2018-08-12T11:37:44.197Z,25.90
2018-08-12T11:43:48.000Z,26.10
2018-08-12T11:49:51.638Z,26.20
2018-08-12T11:56:02.160Z,26.40
2018-08-12T12:02:09.251Z,26.30
2018-08-12T12:08:14.004Z,26.70
2018-08-12T12:14:17.593Z,26.80
2018-08-12T12:20:21.148Z,26.70
2018-08-12T12:26:32.442Z,26.90
2018-08-12T12:32:36.055Z,27.10
2018-08-12T12:38:39.761Z,27.20
2018-08-12T12:44:43.447Z,27.40
2018-08-12T12:50:47.031Z,27.60
2018-08-12T12:56:50.669Z,27.80
2018-08-12T13:02:54.122Z,27.90
2018-08-12T13:08:58.057Z,28.10
2018-08-12T13:15:01.946Z,28.40
2018-08-12T13:21:06.485Z,28.60
2018-08-12T13:27:11.482Z,28.50
2018-08-12T13:33:15.046Z,28.80
2018-08-12T13:39:18.818Z,28.80
2018-08-12T13:45:22.471Z,28.70
2018-08-12T13:51:26.192Z,28.80
2018-08-12T13:57:29.682Z,29.00
2018-08-12T14:03:33.322Z,29.00
2018-08-12T14:09:36.959Z,29.00
2018-08-12T14:15:41.579Z,29.10
2018-08-12T14:21:45.169Z,29.30
2018-08-12T14:27:48.733Z,29.30
2018-08-12T14:33:52.276Z,29.70
2018-08-12T14:39:55.904Z,30.00
2018-08-12T14:45:59.616Z,30.40
2018-08-12T14:52:03.772Z,30.60
2018-08-12T14:58:07.327Z,30.80
2018-08-12T15:04:10.848Z,31.30
2018-08-12T15:10:14.570Z,31.70
2018-08-12T15:16:18.077Z,31.80
2018-08-12T15:22:21.735Z,32.00
2018-08-12T15:28:25.257Z,32.10
2018-08-12T15:34:28.822Z,32.30
2018-08-12T15:40:32.542Z,32.20
2018-08-12T15:46:36.725Z,32.30
2018-08-12T15:52:41.461Z,32.40
2018-08-12T15:58:45.147Z,32.10
2018-08-12T16:04:48.677Z,32.10
2018-08-12T16:10:52.127Z,32.30
2018-08-12T16:16:55.769Z,32.40
2018-08-12T16:22:59.576Z,32.50
2018-08-12T16:29:03.331Z,32.50
2018-08-12T16:35:08.931Z,32.40
2018-08-12T16:41:12.517Z,31.70
2018-08-12T16:47:16.062Z,31.40
2018-08-12T16:53:19.550Z,31.00
2018-08-12T16:59:23.023Z,30.60
2018-08-12T17:05:26.498Z,30.20
2018-08-12T17:11:30.085Z,29.90
2018-08-12T17:17:33.865Z,29.70
2018-08-12T17:23:37.500Z,29.60
2018-08-12T17:29:40.963Z,29.40
2018-08-12T17:35:51.358Z,29.20
2018-08-12T17:41:54.810Z,29.00
2018-08-12T17:47:59.021Z,28.80
2018-08-12T17:54:02.721Z,28.60
2018-08-12T18:00:10.390Z,28.30
2018-08-12T18:06:14.164Z,28.10
2018-08-12T18:12:18.210Z,27.80
2018-08-12T18:18:21.732Z,27.60
2018-08-12T18:24:31.970Z,27.30
2018-08-12T18:30:35.838Z,27.00
2018-08-12T18:36:39.414Z,26.70
2018-08-12T18:42:43.009Z,26.30
2018-08-12T18:48:46.540Z,26.00
2018-08-12T18:54:50.564Z,25.80
2018-08-12T19:00:54.007Z,25.60
2018-08-12T19:06:57.508Z,25.40
2018-08-12T19:13:01.157Z,25.20
2018-08-12T19:19:04.629Z,24.90
2018-08-12T19:25:09.234Z,24.60
2018-08-12T19:31:12.973Z,24.30
2018-08-12T19:37:16.529Z,24.00
2018-08-12T19:43:26.631Z,23.90
2018-08-12T19:49:30.210Z,23.60
2018-08-12T19:55:33.630Z,23.30
2018-08-12T20:01:37.148Z,23.10
2018-08-12T20:07:40.716Z,22.90
2018-08-12T20:13:44.398Z,22.70
2018-08-12T20:19:47.969Z,22.50
2018-08-12T20:25:51.749Z,22.40
2018-08-12T20:31:55.210Z,22.10
2018-08-12T20:37:59.331Z,21.70
2018-08-12T20:44:03.264Z,21.50
2018-08-12T20:50:07.163Z,21.40
2018-08-12T20:56:10.619Z,21.40
2018-08-12T21:02:14.752Z,21.30
2018-08-12T21:08:18.570Z,21.20
2018-08-12T21:14:22.093Z,21.10
2018-08-12T21:20:25.688Z,20.90
2018-08-12T21:26:29.147Z,20.90
2018-08-12T21:32:32.713Z,20.70
2018-08-12T21:38:36.214Z,20.50
2018-08-12T21:44:40.295Z,20.20
2018-08-12T21:50:44.137Z,20.10
2018-08-12T21:56:47.636Z,19.90
2018-08-12T22:02:51.481Z,19.80
2018-08-12T22:08:55.293Z,19.80
2018-08-12T22:14:58.914Z,19.60
2018-08-12T22:21:03.774Z,19.60
2018-08-12T22:27:07.265Z,19.40
2018-08-12T22:33:10.804Z,19.20
2018-08-12T22:39:14.337Z,19.10
2018-08-12T22:45:18.115Z,19.10
2018-08-12T22:51:22.296Z,19.00
2018-08-12T22:57:26.000Z,18.90
2018-08-12T23:03:29.959Z,18.80
2018-08-12T23:09:33.572Z,18.70
2018-08-12T23:16:21.572Z,18.60
2018-08-12T23:22:25.243Z,18.50
2018-08-12T23:28:28.693Z,18.50
2018-08-12T23:34:32.318Z,18.40
2018-08-12T23:40:35.941Z,18.20
2018-08-12T23:46:39.489Z,18.20
2018-08-12T23:52:43.638Z,18.30
2018-08-12T23:58:47.568Z,18.30
